Terminal Aerodrome Forecast
Issued by NWS

Home | Current Version | Previous Version | Text Only | Print | Product List | Glossary On
Versions: 1 2 3 4 5 6 7 8 9 10 11 12 13 14 15 16
000
FTUS46 KOTX 231131
TAFSFF
TAF
KSFF 231131Z 2312/2412 00000KT P6SM VCSH SCT090 BKN100
     FM231400 20008KT P6SM -SHRASN BKN025 OVC040
     FM231700 22012G22KT P6SM -SHRA SCT020 BKN040 OVC080
     FM232200 23016G23KT P6SM VCSH SCT050 BKN080
     FM240500 16007KT P6SM -RA BKN030 OVC050=

USA.gov is the U.S. government's official web portal to all federal, state and local government web resources and services.